Bethalto, Illinois
Current Conditions -  °F | °C
As of 1:55 AM on Tuesday 27 Jan 2015 (Local Time) from KALN Reporting Station
Scattered Clouds Scattered Clouds  
Wind Chill: -1°   Ceiling: Unl
Heat Index:   Visibility: 10mi
Dew Point:   Wind: 6mph
Humidity: 89%   Direction: 310°NW
Pressure: 29.94"   Gusts: NA
Location:  38.91°N, 90.04°W
Report Text: KALN 270755Z AUTO 31005KT 10SM SCT050 02/01 A2994 RMK AO2 T00210005 TSNO
Loading
Personal Weather Stations






























Interactive Weather Map New forecast layout! Learn more

10-Day Weather Forecast

Advertisements
Track Severe Weather on mobile